sensor_id;sensor_type;location;lat;lon;timestamp;P1;durP1;ratioP1;P2;durP2;ratioP2
19521;SDS011;9905;52.126;5.596;2023-05-13T00:00:03;5.03;;;4.60;;
19521;SDS011;9905;52.126;5.596;2023-05-13T00:02:33;4.00;;;3.80;;
19521;SDS011;9905;52.126;5.596;2023-05-13T00:05:00;4.40;;;4.00;;
19521;SDS011;9905;52.126;5.596;2023-05-13T00:07:26;5.60;;;3.88;;
19521;SDS011;9905;52.126;5.596;2023-05-13T00:09:54;3.75;;;3.55;;
19521;SDS011;9905;52.126;5.596;2023-05-13T00:12:21;4.90;;;3.85;;
19521;SDS011;9905;52.126;5.596;2023-05-13T00:14:48;4.50;;;4.10;;
19521;SDS011;9905;52.126;5.596;2023-05-13T00:17:14;4.35;;;4.07;;
19521;SDS011;9905;52.126;5.596;2023-05-13T00:19:41;4.47;;;4.10;;
19521;SDS011;9905;52.126;5.596;2023-05-13T00:22:08;4.05;;;3.85;;
19521;SDS011;9905;52.126;5.596;2023-05-13T00:24:35;4.35;;;4.15;;
19521;SDS011;9905;52.126;5.596;2023-05-13T00:27:03;4.28;;;3.95;;
19521;SDS011;9905;52.126;5.596;2023-05-13T00:29:30;4.22;;;4.03;;
19521;SDS011;9905;52.126;5.596;2023-05-13T00:31:57;4.63;;;4.18;;
19521;SDS011;9905;52.126;5.596;2023-05-13T00:34:23;4.68;;;4.38;;
19521;SDS011;9905;52.126;5.596;2023-05-13T00:36:50;4.15;;;3.95;;
19521;SDS011;9905;52.126;5.596;2023-05-13T00:39:17;4.35;;;3.97;;
19521;SDS011;9905;52.126;5.596;2023-05-13T00:41:43;4.40;;;4.20;;
19521;SDS011;9905;52.126;5.596;2023-05-13T00:44:12;4.72;;;4.43;;
19521;SDS011;9905;52.126;5.596;2023-05-13T00:46:38;4.53;;;4.32;;
19521;SDS011;9905;52.126;5.596;2023-05-13T00:49:05;5.50;;;5.10;;
19521;SDS011;9905;52.126;5.596;2023-05-13T00:51:32;4.82;;;4.53;;
19521;SDS011;9905;52.126;5.596;2023-05-13T00:53:59;4.78;;;4.47;;
19521;SDS011;9905;52.126;5.596;2023-05-13T00:56:26;5.22;;;4.78;;
19521;SDS011;9905;52.126;5.596;2023-05-13T00:58:52;5.03;;;4.47;;
19521;SDS011;9905;52.126;5.596;2023-05-13T01:01:22;4.50;;;4.20;;
19521;SDS011;9905;52.126;5.596;2023-05-13T01:04:02;4.55;;;4.15;;
19521;SDS011;9905;52.126;5.596;2023-05-13T01:06:39;4.88;;;4.47;;
19521;SDS011;9905;52.126;5.596;2023-05-13T01:09:14;4.88;;;4.47;;
19521;SDS011;9905;52.126;5.596;2023-05-13T01:11:46;5.13;;;4.70;;
19521;SDS011;9905;52.126;5.596;2023-05-13T01:14:17;5.13;;;4.72;;
19521;SDS011;9905;52.126;5.596;2023-05-13T01:16:50;4.75;;;4.45;;
19521;SDS011;9905;52.126;5.596;2023-05-13T01:19:25;4.75;;;4.47;;
19521;SDS011;9905;52.126;5.596;2023-05-13T01:22:05;5.20;;;4.72;;
19521;SDS011;9905;52.126;5.596;2023-05-13T01:24:31;4.90;;;4.50;;
19521;SDS011;9905;52.126;5.596;2023-05-13T01:26:58;5.60;;;5.20;;
19521;SDS011;9905;52.126;5.596;2023-05-13T01:29:25;5.32;;;4.93;;
19521;SDS011;9905;52.126;5.596;2023-05-13T01:31:52;5.20;;;4.75;;
19521;SDS011;9905;52.126;5.596;2023-05-13T01:34:20;4.97;;;4.50;;
19521;SDS011;9905;52.126;5.596;2023-05-13T01:36:48;4.63;;;4.32;;
19521;SDS011;9905;52.126;5.596;2023-05-13T01:39:17;4.93;;;4.63;;
19521;SDS011;9905;52.126;5.596;2023-05-13T01:41:45;5.03;;;4.70;;
19521;SDS011;9905;52.126;5.596;2023-05-13T01:44:12;5.18;;;4.78;;
19521;SDS011;9905;52.126;5.596;2023-05-13T01:46:39;5.07;;;4.68;;
19521;SDS011;9905;52.126;5.596;2023-05-13T01:49:08;5.05;;;4.65;;
19521;SDS011;9905;52.126;5.596;2023-05-13T01:51:35;5.97;;;5.47;;
19521;SDS011;9905;52.126;5.596;2023-05-13T01:54:02;5.80;;;5.30;;
19521;SDS011;9905;52.126;5.596;2023-05-13T01:56:30;5.10;;;4.80;;
19521;SDS011;9905;52.126;5.596;2023-05-13T01:58:56;5.63;;;4.65;;
19521;SDS011;9905;52.126;5.596;2023-05-13T02:01:23;5.55;;;5.13;;
19521;SDS011;9905;52.126;5.596;2023-05-13T02:03:50;5.60;;;5.30;;
19521;SDS011;9905;52.126;5.596;2023-05-13T02:06:17;5.18;;;4.88;;
19521;SDS011;9905;52.126;5.596;2023-05-13T02:08:44;5.80;;;5.30;;
19521;SDS011;9905;52.126;5.596;2023-05-13T02:11:11;5.40;;;4.90;;
19521;SDS011;9905;52.126;5.596;2023-05-13T02:13:39;6.20;;;5.80;;
19521;SDS011;9905;52.126;5.596;2023-05-13T02:16:05;6.43;;;5.93;;
19521;SDS011;9905;52.126;5.596;2023-05-13T02:18:32;6.20;;;5.75;;
19521;SDS011;9905;52.126;5.596;2023-05-13T02:20:59;6.53;;;5.78;;
19521;SDS011;9905;52.126;5.596;2023-05-13T02:23:26;5.82;;;5.53;;
19521;SDS011;9905;52.126;5.596;2023-05-13T02:25:52;5.80;;;5.40;;
19521;SDS011;9905;52.126;5.596;2023-05-13T02:28:19;6.88;;;6.22;;
19521;SDS011;9905;52.126;5.596;2023-05-13T02:30:47;6.82;;;6.30;;
19521;SDS011;9905;52.126;5.596;2023-05-13T02:33:14;6.70;;;6.20;;
19521;SDS011;9905;52.126;5.596;2023-05-13T02:35:41;6.38;;;5.97;;
19521;SDS011;9905;52.126;5.596;2023-05-13T02:38:08;6.32;;;5.93;;
19521;SDS011;9905;52.126;5.596;2023-05-13T02:40:34;6.95;;;6.47;;
19521;SDS011;9905;52.126;5.596;2023-05-13T02:43:01;6.85;;;6.32;;
19521;SDS011;9905;52.126;5.596;2023-05-13T02:45:28;7.00;;;6.50;;
19521;SDS011;9905;52.126;5.596;2023-05-13T02:47:56;7.05;;;6.65;;
19521;SDS011;9905;52.126;5.596;2023-05-13T02:50:23;7.60;;;7.10;;
19521;SDS011;9905;52.126;5.596;2023-05-13T02:52:50;6.80;;;6.22;;
19521;SDS011;9905;52.126;5.596;2023-05-13T02:55:17;6.95;;;6.47;;
19521;SDS011;9905;52.126;5.596;2023-05-13T02:57:44;8.48;;;6.80;;
19521;SDS011;9905;52.126;5.596;2023-05-13T03:00:11;7.72;;;7.07;;
19521;SDS011;9905;52.126;5.596;2023-05-13T03:02:38;7.82;;;7.03;;
19521;SDS011;9905;52.126;5.596;2023-05-13T03:05:07;7.93;;;7.22;;
19521;SDS011;9905;52.126;5.596;2023-05-13T03:07:34;7.25;;;6.75;;
19521;SDS011;9905;52.126;5.596;2023-05-13T03:10:01;7.93;;;7.35;;
19521;SDS011;9905;52.126;5.596;2023-05-13T03:12:27;8.10;;;7.38;;
19521;SDS011;9905;52.126;5.596;2023-05-13T03:14:55;8.07;;;7.40;;
19521;SDS011;9905;52.126;5.596;2023-05-13T03:17:23;8.20;;;7.45;;
19521;SDS011;9905;52.126;5.596;2023-05-13T03:19:49;8.30;;;7.50;;
19521;SDS011;9905;52.126;5.596;2023-05-13T03:22:18;8.52;;;7.72;;
19521;SDS011;9905;52.126;5.596;2023-05-13T03:24:44;7.68;;;7.18;;
19521;SDS011;9905;52.126;5.596;2023-05-13T03:27:11;8.60;;;8.00;;
19521;SDS011;9905;52.126;5.596;2023-05-13T03:29:38;8.27;;;7.47;;
19521;SDS011;9905;52.126;5.596;2023-05-13T03:32:05;10.45;;;7.43;;
19521;SDS011;9905;52.126;5.596;2023-05-13T03:34:32;7.63;;;7.07;;
19521;SDS011;9905;52.126;5.596;2023-05-13T03:37:00;9.18;;;8.32;;
19521;SDS011;9905;52.126;5.596;2023-05-13T03:39:28;8.35;;;7.45;;
19521;SDS011;9905;52.126;5.596;2023-05-13T03:41:55;8.88;;;8.15;;
19521;SDS011;9905;52.126;5.596;2023-05-13T03:44:22;8.85;;;7.85;;
19521;SDS011;9905;52.126;5.596;2023-05-13T03:46:48;8.73;;;7.93;;
19521;SDS011;9905;52.126;5.596;2023-05-13T03:49:15;8.35;;;7.63;;
19521;SDS011;9905;52.126;5.596;2023-05-13T03:51:43;8.93;;;8.02;;
19521;SDS011;9905;52.126;5.596;2023-05-13T03:54:09;9.05;;;8.25;;
19521;SDS011;9905;52.126;5.596;2023-05-13T03:56:37;10.65;;;8.00;;
19521;SDS011;9905;52.126;5.596;2023-05-13T03:59:04;9.35;;;8.52;;
19521;SDS011;9905;52.126;5.596;2023-05-13T04:01:31;9.13;;;8.35;;
19521;SDS011;9905;52.126;5.596;2023-05-13T04:03:57;9.48;;;8.27;;
19521;SDS011;9905;52.126;5.596;2023-05-13T04:06:24;8.90;;;8.05;;
19521;SDS011;9905;52.126;5.596;2023-05-13T04:08:51;9.43;;;8.70;;
19521;SDS011;9905;52.126;5.596;2023-05-13T04:11:17;9.05;;;8.25;;
19521;SDS011;9905;52.126;5.596;2023-05-13T04:13:46;8.50;;;7.90;;
19521;SDS011;9905;52.126;5.596;2023-05-13T04:16:13;9.95;;;9.02;;
19521;SDS011;9905;52.126;5.596;2023-05-13T04:18:39;8.85;;;8.00;;
19521;SDS011;9905;52.126;5.596;2023-05-13T04:21:06;9.77;;;8.43;;
19521;SDS011;9905;52.126;5.596;2023-05-13T04:23:33;9.38;;;8.48;;
19521;SDS011;9905;52.126;5.596;2023-05-13T04:26:00;9.27;;;8.68;;
19521;SDS011;9905;52.126;5.596;2023-05-13T04:28:27;9.75;;;8.95;;
19521;SDS011;9905;52.126;5.596;2023-05-13T04:30:55;9.90;;;8.95;;
19521;SDS011;9905;52.126;5.596;2023-05-13T04:33:22;9.68;;;8.98;;
19521;SDS011;9905;52.126;5.596;2023-05-13T04:35:48;9.48;;;8.77;;
19521;SDS011;9905;52.126;5.596;2023-05-13T04:38:15;10.13;;;9.13;;
19521;SDS011;9905;52.126;5.596;2023-05-13T04:40:42;9.85;;;9.05;;
19521;SDS011;9905;52.126;5.596;2023-05-13T04:43:09;9.57;;;8.77;;
19521;SDS011;9905;52.126;5.596;2023-05-13T04:45:36;9.43;;;8.68;;
19521;SDS011;9905;52.126;5.596;2023-05-13T04:48:05;9.52;;;8.63;;
19521;SDS011;9905;52.126;5.596;2023-05-13T04:50:32;11.18;;;8.88;;
19521;SDS011;9905;52.126;5.596;2023-05-13T04:52:59;11.98;;;9.30;;
19521;SDS011;9905;52.126;5.596;2023-05-13T04:55:25;9.90;;;9.20;;
19521;SDS011;9905;52.126;5.596;2023-05-13T04:57:52;9.82;;;9.10;;
19521;SDS011;9905;52.126;5.596;2023-05-13T05:00:19;9.93;;;9.02;;
19521;SDS011;9905;52.126;5.596;2023-05-13T05:02:45;9.75;;;8.85;;
19521;SDS011;9905;52.126;5.596;2023-05-13T05:05:14;10.55;;;9.68;;
19521;SDS011;9905;52.126;5.596;2023-05-13T05:07:40;10.23;;;9.32;;
19521;SDS011;9905;52.126;5.596;2023-05-13T05:10:07;10.98;;;9.98;;
19521;SDS011;9905;52.126;5.596;2023-05-13T05:12:34;10.07;;;9.35;;
19521;SDS011;9905;52.126;5.596;2023-05-13T05:15:02;9.40;;;8.68;;
19521;SDS011;9905;52.126;5.596;2023-05-13T05:17:29;9.68;;;8.98;;
19521;SDS011;9905;52.126;5.596;2023-05-13T05:19:56;9.98;;;8.93;;
19521;SDS011;9905;52.126;5.596;2023-05-13T05:22:25;9.98;;;9.13;;
19521;SDS011;9905;52.126;5.596;2023-05-13T05:24:52;10.73;;;9.82;;
19521;SDS011;9905;52.126;5.596;2023-05-13T05:27:18;10.00;;;9.07;;
19521;SDS011;9905;52.126;5.596;2023-05-13T05:29:45;10.70;;;9.55;;
19521;SDS011;9905;52.126;5.596;2023-05-13T05:32:12;10.88;;;9.85;;
19521;SDS011;9905;52.126;5.596;2023-05-13T05:34:38;11.35;;;10.35;;
19521;SDS011;9905;52.126;5.596;2023-05-13T05:37:05;11.18;;;9.55;;
19521;SDS011;9905;52.126;5.596;2023-05-13T05:39:33;12.13;;;9.98;;
19521;SDS011;9905;52.126;5.596;2023-05-13T05:42:00;9.30;;;8.60;;
19521;SDS011;9905;52.126;5.596;2023-05-13T05:44:27;10.73;;;9.70;;
19521;SDS011;9905;52.126;5.596;2023-05-13T05:46:53;9.93;;;9.10;;
19521;SDS011;9905;52.126;5.596;2023-05-13T05:49:20;10.18;;;9.18;;
19521;SDS011;9905;52.126;5.596;2023-05-13T05:51:47;11.00;;;10.10;;
19521;SDS011;9905;52.126;5.596;2023-05-13T05:54:13;10.65;;;9.70;;
19521;SDS011;9905;52.126;5.596;2023-05-13T05:56:41;10.77;;;9.25;;
19521;SDS011;9905;52.126;5.596;2023-05-13T05:59:08;11.15;;;10.15;;
19521;SDS011;9905;52.126;5.596;2023-05-13T06:01:35;12.57;;;10.90;;
19521;SDS011;9905;52.126;5.596;2023-05-13T06:04:02;9.95;;;9.13;;
19521;SDS011;9905;52.126;5.596;2023-05-13T06:06:30;10.15;;;9.43;;
19521;SDS011;9905;52.126;5.596;2023-05-13T06:08:57;10.18;;;9.15;;
19521;SDS011;9905;52.126;5.596;2023-05-13T06:11:24;10.50;;;9.43;;
19521;SDS011;9905;52.126;5.596;2023-05-13T06:13:52;11.65;;;10.70;;
19521;SDS011;9905;52.126;5.596;2023-05-13T06:16:21;12.25;;;9.38;;
19521;SDS011;9905;52.126;5.596;2023-05-13T06:18:48;9.88;;;9.02;;
19521;SDS011;9905;52.126;5.596;2023-05-13T06:21:14;11.18;;;9.45;;
19521;SDS011;9905;52.126;5.596;2023-05-13T06:23:41;9.48;;;8.85;;
19521;SDS011;9905;52.126;5.596;2023-05-13T06:26:08;9.60;;;8.77;;
19521;SDS011;9905;52.126;5.596;2023-05-13T06:28:35;10.65;;;9.65;;
19521;SDS011;9905;52.126;5.596;2023-05-13T06:31:03;9.57;;;8.77;;
19521;SDS011;9905;52.126;5.596;2023-05-13T06:33:29;10.50;;;9.50;;
19521;SDS011;9905;52.126;5.596;2023-05-13T06:35:56;10.32;;;9.52;;
19521;SDS011;9905;52.126;5.596;2023-05-13T06:38:23;9.85;;;9.15;;
19521;SDS011;9905;52.126;5.596;2023-05-13T06:40:49;10.23;;;9.48;;
19521;SDS011;9905;52.126;5.596;2023-05-13T06:43:16;10.43;;;9.52;;
19521;SDS011;9905;52.126;5.596;2023-05-13T06:45:43;10.18;;;9.32;;
19521;SDS011;9905;52.126;5.596;2023-05-13T06:48:11;11.27;;;9.30;;
19521;SDS011;9905;52.126;5.596;2023-05-13T06:50:39;10.10;;;9.20;;
19521;SDS011;9905;52.126;5.596;2023-05-13T06:53:06;10.15;;;9.25;;
19521;SDS011;9905;52.126;5.596;2023-05-13T06:55:35;9.27;;;8.55;;
19521;SDS011;9905;52.126;5.596;2023-05-13T06:58:05;9.77;;;9.05;;
19521;SDS011;9905;52.126;5.596;2023-05-13T07:00:34;10.77;;;9.82;;
19521;SDS011;9905;52.126;5.596;2023-05-13T07:03:02;8.80;;;8.13;;
19521;SDS011;9905;52.126;5.596;2023-05-13T07:05:30;9.82;;;9.02;;
19521;SDS011;9905;52.126;5.596;2023-05-13T07:07:57;10.00;;;8.70;;
19521;SDS011;9905;52.126;5.596;2023-05-13T07:10:24;9.75;;;8.85;;
19521;SDS011;9905;52.126;5.596;2023-05-13T07:12:51;12.15;;;9.05;;
19521;SDS011;9905;52.126;5.596;2023-05-13T07:15:18;10.18;;;8.90;;
19521;SDS011;9905;52.126;5.596;2023-05-13T07:17:45;9.77;;;9.18;;
19521;SDS011;9905;52.126;5.596;2023-05-13T07:20:11;10.43;;;9.40;;
19521;SDS011;9905;52.126;5.596;2023-05-13T07:22:39;9.40;;;8.65;;
19521;SDS011;9905;52.126;5.596;2023-05-13T07:25:06;9.60;;;8.90;;
19521;SDS011;9905;52.126;5.596;2023-05-13T07:27:34;9.68;;;8.95;;
19521;SDS011;9905;52.126;5.596;2023-05-13T07:30:01;9.85;;;8.80;;
19521;SDS011;9905;52.126;5.596;2023-05-13T07:32:28;9.68;;;8.77;;
19521;SDS011;9905;52.126;5.596;2023-05-13T07:34:55;9.02;;;8.25;;
19521;SDS011;9905;52.126;5.596;2023-05-13T07:37:22;9.55;;;8.75;;
19521;SDS011;9905;52.126;5.596;2023-05-13T07:39:50;9.27;;;8.35;;
19521;SDS011;9905;52.126;5.596;2023-05-13T07:42:17;9.30;;;8.60;;
19521;SDS011;9905;52.126;5.596;2023-05-13T07:44:44;9.20;;;8.45;;
19521;SDS011;9905;52.126;5.596;2023-05-13T07:47:11;8.85;;;8.25;;
19521;SDS011;9905;52.126;5.596;2023-05-13T07:49:38;9.25;;;8.65;;
19521;SDS011;9905;52.126;5.596;2023-05-13T07:52:05;9.38;;;8.48;;
19521;SDS011;9905;52.126;5.596;2023-05-13T07:54:32;8.68;;;7.88;;
19521;SDS011;9905;52.126;5.596;2023-05-13T07:57:00;8.10;;;7.40;;
19521;SDS011;9905;52.126;5.596;2023-05-13T07:59:27;8.27;;;7.57;;
19521;SDS011;9905;52.126;5.596;2023-05-13T08:01:54;8.45;;;7.72;;
19521;SDS011;9905;52.126;5.596;2023-05-13T08:04:21;8.40;;;7.70;;
19521;SDS011;9905;52.126;5.596;2023-05-13T08:06:48;7.97;;;7.43;;
19521;SDS011;9905;52.126;5.596;2023-05-13T08:09:15;7.65;;;7.05;;
19521;SDS011;9905;52.126;5.596;2023-05-13T08:11:42;8.32;;;7.35;;
19521;SDS011;9905;52.126;5.596;2023-05-13T08:14:10;7.47;;;6.63;;
19521;SDS011;9905;52.126;5.596;2023-05-13T08:16:36;7.13;;;6.53;;
19521;SDS011;9905;52.126;5.596;2023-05-13T08:19:03;6.65;;;6.05;;
19521;SDS011;9905;52.126;5.596;2023-05-13T08:21:30;6.78;;;6.20;;
19521;SDS011;9905;52.126;5.596;2023-05-13T08:23:57;6.57;;;6.18;;
19521;SDS011;9905;52.126;5.596;2023-05-13T08:26:23;6.38;;;5.88;;
19521;SDS011;9905;52.126;5.596;2023-05-13T08:28:50;5.93;;;5.57;;
19521;SDS011;9905;52.126;5.596;2023-05-13T08:31:18;6.05;;;5.40;;
19521;SDS011;9905;52.126;5.596;2023-05-13T08:33:45;6.65;;;6.10;;
19521;SDS011;9905;52.126;5.596;2023-05-13T08:36:13;6.38;;;5.90;;
19521;SDS011;9905;52.126;5.596;2023-05-13T08:38:40;6.35;;;5.78;;
19521;SDS011;9905;52.126;5.596;2023-05-13T08:41:07;5.80;;;5.40;;
19521;SDS011;9905;52.126;5.596;2023-05-13T08:43:37;5.82;;;5.43;;
19521;SDS011;9905;52.126;5.596;2023-05-13T08:46:05;5.57;;;5.18;;
19521;SDS011;9905;52.126;5.596;2023-05-13T08:48:39;6.25;;;5.85;;
19521;SDS011;9905;52.126;5.596;2023-05-13T08:51:06;6.20;;;5.68;;
19521;SDS011;9905;52.126;5.596;2023-05-13T08:53:34;6.15;;;5.72;;
19521;SDS011;9905;52.126;5.596;2023-05-13T08:56:01;6.20;;;5.70;;
19521;SDS011;9905;52.126;5.596;2023-05-13T08:58:30;5.63;;;5.13;;
19521;SDS011;9905;52.126;5.596;2023-05-13T09:00:57;7.80;;;5.30;;
19521;SDS011;9905;52.126;5.596;2023-05-13T09:03:23;4.95;;;4.55;;
19521;SDS011;9905;52.126;5.596;2023-05-13T09:05:54;4.68;;;4.47;;
19521;SDS011;9905;52.126;5.596;2023-05-13T09:08:21;5.35;;;4.95;;
19521;SDS011;9905;52.126;5.596;2023-05-13T09:10:47;5.00;;;4.47;;
19521;SDS011;9905;52.126;5.596;2023-05-13T09:13:15;5.30;;;5.00;;
19521;SDS011;9905;52.126;5.596;2023-05-13T09:15:43;5.70;;;5.18;;
19521;SDS011;9905;52.126;5.596;2023-05-13T09:18:10;5.40;;;5.05;;
19521;SDS011;9905;52.126;5.596;2023-05-13T09:20:37;4.63;;;4.32;;
19521;SDS011;9905;52.126;5.596;2023-05-13T09:23:06;4.88;;;4.50;;
19521;SDS011;9905;52.126;5.596;2023-05-13T09:25:34;5.20;;;4.80;;
19521;SDS011;9905;52.126;5.596;2023-05-13T09:28:03;5.28;;;4.25;;
19521;SDS011;9905;52.126;5.596;2023-05-13T09:30:31;8.25;;;4.43;;
19521;SDS011;9905;52.126;5.596;2023-05-13T09:33:03;5.03;;;4.63;;
19521;SDS011;9905;52.126;5.596;2023-05-13T09:35:31;4.50;;;4.20;;
19521;SDS011;9905;52.126;5.596;2023-05-13T09:37:59;230.60;;;28.17;;
19521;SDS011;9905;52.126;5.596;2023-05-13T09:40:27;14.88;;;6.10;;
19521;SDS011;9905;52.126;5.596;2023-05-13T09:42:55;4.13;;;3.63;;
19521;SDS011;9905;52.126;5.596;2023-05-13T09:45:24;4.45;;;3.95;;
19521;SDS011;9905;52.126;5.596;2023-05-13T09:47:51;4.28;;;4.00;;
19521;SDS011;9905;52.126;5.596;2023-05-13T09:50:21;3.97;;;3.78;;
19521;SDS011;9905;52.126;5.596;2023-05-13T09:52:48;4.25;;;3.95;;
19521;SDS011;9905;52.126;5.596;2023-05-13T09:55:15;4.57;;;4.10;;
19521;SDS011;9905;52.126;5.596;2023-05-13T09:57:44;5.18;;;4.47;;
19521;SDS011;9905;52.126;5.596;2023-05-13T10:00:11;4.97;;;4.05;;
19521;SDS011;9905;52.126;5.596;2023-05-13T10:02:38;4.80;;;4.40;;
19521;SDS011;9905;52.126;5.596;2023-05-13T10:05:06;4.85;;;4.38;;
19521;SDS011;9905;52.126;5.596;2023-05-13T10:07:34;4.80;;;4.40;;
19521;SDS011;9905;52.126;5.596;2023-05-13T10:10:02;4.40;;;4.03;;
19521;SDS011;9905;52.126;5.596;2023-05-13T10:12:32;4.35;;;3.95;;
19521;SDS011;9905;52.126;5.596;2023-05-13T10:15:03;5.68;;;4.43;;
19521;SDS011;9905;52.126;5.596;2023-05-13T10:17:31;4.70;;;4.00;;
19521;SDS011;9905;52.126;5.596;2023-05-13T10:19:58;4.47;;;4.18;;
19521;SDS011;9905;52.126;5.596;2023-05-13T10:22:26;4.00;;;3.72;;
19521;SDS011;9905;52.126;5.596;2023-05-13T10:24:55;5.05;;;4.07;;
19521;SDS011;9905;52.126;5.596;2023-05-13T10:27:25;4.53;;;4.22;;
19521;SDS011;9905;52.126;5.596;2023-05-13T10:29:53;4.35;;;3.92;;
19521;SDS011;9905;52.126;5.596;2023-05-13T10:32:22;4.10;;;3.80;;
19521;SDS011;9905;52.126;5.596;2023-05-13T10:34:50;3.97;;;3.78;;
19521;SDS011;9905;52.126;5.596;2023-05-13T10:37:28;4.00;;;3.80;;
19521;SDS011;9905;52.126;5.596;2023-05-13T10:40:16;4.97;;;4.65;;
19521;SDS011;9905;52.126;5.596;2023-05-13T10:42:55;3.80;;;3.60;;
19521;SDS011;9905;52.126;5.596;2023-05-13T10:45:35;4.85;;;4.45;;
19521;SDS011;9905;52.126;5.596;2023-05-13T10:48:05;4.35;;;3.97;;
19521;SDS011;9905;52.126;5.596;2023-05-13T10:50:34;4.85;;;4.45;;
19521;SDS011;9905;52.126;5.596;2023-05-13T10:53:05;3.90;;;3.63;;
19521;SDS011;9905;52.126;5.596;2023-05-13T10:55:38;3.72;;;3.53;;
19521;SDS011;9905;52.126;5.596;2023-05-13T10:58:06;3.65;;;3.40;;
19521;SDS011;9905;52.126;5.596;2023-05-13T11:00:37;3.60;;;3.40;;
19521;SDS011;9905;52.126;5.596;2023-05-13T11:03:10;3.28;;;3.08;;
19521;SDS011;9905;52.126;5.596;2023-05-13T11:05:39;3.22;;;3.03;;
19521;SDS011;9905;52.126;5.596;2023-05-13T11:08:08;3.22;;;3.00;;
19521;SDS011;9905;52.126;5.596;2023-05-13T11:10:35;3.47;;;3.15;;
19521;SDS011;9905;52.126;5.596;2023-05-13T11:13:06;3.40;;;3.20;;
19521;SDS011;9905;52.126;5.596;2023-05-13T11:15:47;3.20;;;3.03;;
19521;SDS011;9905;52.126;5.596;2023-05-13T11:18:17;3.65;;;3.35;;
19521;SDS011;9905;52.126;5.596;2023-05-13T11:20:45;3.33;;;3.10;;
19521;SDS011;9905;52.126;5.596;2023-05-13T11:23:17;3.75;;;3.25;;
19521;SDS011;9905;52.126;5.596;2023-05-13T11:25:44;3.30;;;3.10;;
19521;SDS011;9905;52.126;5.596;2023-05-13T11:28:14;3.65;;;3.45;;
19521;SDS011;9905;52.126;5.596;2023-05-13T11:30:51;3.28;;;3.10;;
19521;SDS011;9905;52.126;5.596;2023-05-13T11:33:20;3.40;;;3.08;;
19521;SDS011;9905;52.126;5.596;2023-05-13T11:35:52;3.20;;;3.10;;
19521;SDS011;9905;52.126;5.596;2023-05-13T11:38:21;3.17;;;2.97;;
19521;SDS011;9905;52.126;5.596;2023-05-13T11:40:49;7.35;;;3.20;;
19521;SDS011;9905;52.126;5.596;2023-05-13T11:43:18;2.80;;;2.70;;
19521;SDS011;9905;52.126;5.596;2023-05-13T11:45:46;3.00;;;2.80;;
19521;SDS011;9905;52.126;5.596;2023-05-13T11:48:17;3.25;;;3.05;;
19521;SDS011;9905;52.126;5.596;2023-05-13T11:50:46;3.03;;;2.83;;
19521;SDS011;9905;52.126;5.596;2023-05-13T11:53:17;4.43;;;3.38;;
19521;SDS011;9905;52.126;5.596;2023-05-13T11:55:46;3.10;;;2.90;;
19521;SDS011;9905;52.126;5.596;2023-05-13T11:58:13;3.28;;;2.88;;
19521;SDS011;9905;52.126;5.596;2023-05-13T12:00:40;4.00;;;3.10;;
19521;SDS011;9905;52.126;5.596;2023-05-13T12:03:08;2.78;;;2.67;;
19521;SDS011;9905;52.126;5.596;2023-05-13T12:05:35;3.22;;;2.88;;
19521;SDS011;9905;52.126;5.596;2023-05-13T12:08:05;3.25;;;3.03;;
19521;SDS011;9905;52.126;5.596;2023-05-13T12:10:32;2.88;;;2.65;;
19521;SDS011;9905;52.126;5.596;2023-05-13T12:12:59;3.33;;;2.78;;
19521;SDS011;9905;52.126;5.596;2023-05-13T12:15:26;3.10;;;2.80;;
19521;SDS011;9905;52.126;5.596;2023-05-13T12:17:53;2.83;;;2.72;;
19521;SDS011;9905;52.126;5.596;2023-05-13T12:20:22;3.70;;;3.35;;
19521;SDS011;9905;52.126;5.596;2023-05-13T12:22:50;3.45;;;2.70;;
19521;SDS011;9905;52.126;5.596;2023-05-13T12:25:41;3.60;;;2.80;;
19521;SDS011;9905;52.126;5.596;2023-05-13T12:28:10;3.30;;;3.10;;
19521;SDS011;9905;52.126;5.596;2023-05-13T12:30:41;2.75;;;2.65;;
19521;SDS011;9905;52.126;5.596;2023-05-13T12:33:12;2.85;;;2.65;;
19521;SDS011;9905;52.126;5.596;2023-05-13T12:35:40;2.83;;;2.63;;
19521;SDS011;9905;52.126;5.596;2023-05-13T12:38:07;3.00;;;2.88;;
19521;SDS011;9905;52.126;5.596;2023-05-13T12:40:38;3.83;;;3.03;;
19521;SDS011;9905;52.126;5.596;2023-05-13T12:43:06;3.05;;;2.85;;
19521;SDS011;9905;52.126;5.596;2023-05-13T12:45:39;3.13;;;2.90;;
19521;SDS011;9905;52.126;5.596;2023-05-13T12:48:06;3.13;;;2.92;;
19521;SDS011;9905;52.126;5.596;2023-05-13T12:50:33;7.93;;;3.25;;
19521;SDS011;9905;52.126;5.596;2023-05-13T12:53:01;5.10;;;2.83;;
19521;SDS011;9905;52.126;5.596;2023-05-13T12:55:28;3.28;;;3.08;;
19521;SDS011;9905;52.126;5.596;2023-05-13T12:57:58;4.60;;;2.72;;
19521;SDS011;9905;52.126;5.596;2023-05-13T13:00:25;2.83;;;2.63;;
19521;SDS011;9905;52.126;5.596;2023-05-13T13:02:53;3.15;;;3.03;;
19521;SDS011;9905;52.126;5.596;2023-05-13T13:05:20;2.80;;;2.60;;
19521;SDS011;9905;52.126;5.596;2023-05-13T13:07:48;2.95;;;2.75;;
19521;SDS011;9905;52.126;5.596;2023-05-13T13:10:14;3.50;;;3.30;;
19521;SDS011;9905;52.126;5.596;2023-05-13T13:12:41;4.05;;;2.95;;
19521;SDS011;9905;52.126;5.596;2023-05-13T13:15:10;3.35;;;2.90;;
19521;SDS011;9905;52.126;5.596;2023-05-13T13:17:37;4.97;;;2.90;;
19521;SDS011;9905;52.126;5.596;2023-05-13T13:20:04;3.08;;;2.80;;
19521;SDS011;9905;52.126;5.596;2023-05-13T13:22:32;4.60;;;3.00;;
19521;SDS011;9905;52.126;5.596;2023-05-13T13:25:00;3.55;;;2.67;;
19521;SDS011;9905;52.126;5.596;2023-05-13T13:27:28;3.55;;;3.25;;
19521;SDS011;9905;52.126;5.596;2023-05-13T13:29:54;3.00;;;2.83;;
19521;SDS011;9905;52.126;5.596;2023-05-13T13:32:23;2.85;;;2.60;;
19521;SDS011;9905;52.126;5.596;2023-05-13T13:34:49;2.88;;;2.67;;
19521;SDS011;9905;52.126;5.596;2023-05-13T13:37:16;2.65;;;2.28;;
19521;SDS011;9905;52.126;5.596;2023-05-13T13:39:43;2.70;;;2.60;;
19521;SDS011;9905;52.126;5.596;2023-05-13T13:42:09;2.65;;;2.45;;
19521;SDS011;9905;52.126;5.596;2023-05-13T13:44:36;2.83;;;2.50;;
19521;SDS011;9905;52.126;5.596;2023-05-13T13:47:03;3.38;;;2.60;;
19521;SDS011;9905;52.126;5.596;2023-05-13T13:49:31;2.63;;;2.40;;
19521;SDS011;9905;52.126;5.596;2023-05-13T13:51:58;3.60;;;2.42;;
19521;SDS011;9905;52.126;5.596;2023-05-13T13:54:25;3.13;;;2.92;;
19521;SDS011;9905;52.126;5.596;2023-05-13T13:56:51;2.40;;;2.30;;
19521;SDS011;9905;52.126;5.596;2023-05-13T13:59:18;2.97;;;2.47;;
19521;SDS011;9905;52.126;5.596;2023-05-13T14:01:45;2.70;;;2.60;;
19521;SDS011;9905;52.126;5.596;2023-05-13T14:04:12;3.00;;;2.70;;
19521;SDS011;9905;52.126;5.596;2023-05-13T14:06:41;2.78;;;2.67;;
19521;SDS011;9905;52.126;5.596;2023-05-13T14:09:10;2.78;;;2.63;;
19521;SDS011;9905;52.126;5.596;2023-05-13T14:11:37;2.60;;;2.50;;
19521;SDS011;9905;52.126;5.596;2023-05-13T14:14:03;2.72;;;2.53;;
19521;SDS011;9905;52.126;5.596;2023-05-13T14:16:31;4.72;;;2.75;;
19521;SDS011;9905;52.126;5.596;2023-05-13T14:18:58;2.40;;;2.30;;
19521;SDS011;9905;52.126;5.596;2023-05-13T14:21:24;3.08;;;2.78;;
19521;SDS011;9905;52.126;5.596;2023-05-13T14:23:52;2.70;;;2.50;;
19521;SDS011;9905;52.126;5.596;2023-05-13T14:26:19;2.95;;;2.72;;
19521;SDS011;9905;52.126;5.596;2023-05-13T14:28:46;2.70;;;2.50;;
19521;SDS011;9905;52.126;5.596;2023-05-13T14:31:13;2.63;;;2.53;;
19521;SDS011;9905;52.126;5.596;2023-05-13T14:33:40;2.60;;;2.40;;
19521;SDS011;9905;52.126;5.596;2023-05-13T14:36:06;2.45;;;2.25;;
19521;SDS011;9905;52.126;5.596;2023-05-13T14:38:35;2.88;;;2.78;;
19521;SDS011;9905;52.126;5.596;2023-05-13T14:41:03;3.47;;;2.85;;
19521;SDS011;9905;52.126;5.596;2023-05-13T14:43:30;2.47;;;2.38;;
19521;SDS011;9905;52.126;5.596;2023-05-13T14:45:57;2.40;;;2.30;;
19521;SDS011;9905;52.126;5.596;2023-05-13T14:48:24;2.67;;;2.42;;
19521;SDS011;9905;52.126;5.596;2023-05-13T14:50:51;2.30;;;2.20;;
19521;SDS011;9905;52.126;5.596;2023-05-13T14:53:18;3.75;;;2.42;;
19521;SDS011;9905;52.126;5.596;2023-05-13T14:55:45;2.78;;;2.58;;
19521;SDS011;9905;52.126;5.596;2023-05-13T14:58:13;2.85;;;2.15;;
19521;SDS011;9905;52.126;5.596;2023-05-13T15:00:40;2.67;;;2.47;;
19521;SDS011;9905;52.126;5.596;2023-05-13T15:03:06;2.42;;;2.30;;